Time;durP1;ratioP1;P1;durP2;ratioP2;P2;SDS_P1;SDS_P2;PMS_P1;PMS_P2;Temp;Humidity;BMP_temperature;BMP_pressure;BME280_temperature;BME280_humidity;BME280_pressure;Samples;Min_cycle;Max_cycle;Signal;HPM_P1;HPM_P2
2022/05/03 00:01:02;;;;;;;13.75;6.78;;;11.80;99.90;;;;;;5053021;28;20087;-79
2022/05/03 00:03:36;;;;;;;10.13;6.75;;;11.90;99.90;;;;;;5052764;28;20122;-79
2022/05/03 00:06:18;;;;;;;10.70;6.57;;;11.80;99.90;;;;;;5052946;28;20029;-77
2022/05/03 00:09:07;;;;;;;12.02;7.53;;;11.90;99.90;;;;;;5053005;28;20090;-78
2022/05/03 00:11:53;;;;;;;12.27;7.38;;;11.70;99.90;;;;;;5052112;28;20044;-79
2022/05/03 00:14:37;;;;;;;9.55;6.50;;;11.80;99.90;;;;;;5052703;28;20110;-79
2022/05/03 00:17:04;;;;;;;9.00;6.43;;;11.80;99.90;;;;;;5052880;28;20028;-78
2022/05/03 00:19:32;;;;;;;9.82;6.57;;;11.90;99.90;;;;;;5035122;28;20029;-78
2022/05/03 00:21:59;;;;;;;11.05;6.45;;;12.00;99.90;;;;;;5052839;28;20036;-79
2022/05/03 00:24:25;;;;;;;7.43;6.10;;;11.80;99.90;;;;;;5034723;28;20032;-78
2022/05/03 00:26:51;;;;;;;9.50;6.45;;;11.70;99.90;;;;;;5052846;28;20033;-78
2022/05/03 00:29:18;;;;;;;8.95;5.70;;;11.80;99.90;;;;;;5034638;28;20025;-77
2022/05/03 00:31:44;;;;;;;7.63;5.70;;;11.70;99.90;;;;;;5052853;28;20056;-78
2022/05/03 00:34:12;;;;;;;11.88;5.25;;;11.60;99.90;;;;;;5052617;28;20021;-79
2022/05/03 00:36:37;;;;;;;10.68;5.35;;;11.60;99.90;;;;;;5052897;28;20389;-74
2022/05/03 00:39:03;;;;;;;11.65;6.32;;;11.70;99.90;;;;;;5052539;28;20037;-72
2022/05/03 00:41:46;;;;;;;9.77;6.15;;;11.50;99.90;;;;;;5052654;28;20033;-71
2022/05/03 00:47:20;;;;;;;8.30;6.03;;;11.20;99.90;;;;;;5055754;28;20108;-78
2022/05/03 00:49:59;;;;;;;9.68;5.70;;;11.30;99.90;;;;;;5056814;28;20095;-78
2022/05/03 00:52:58;;;;;;;7.50;5.53;;;11.20;99.90;;;;;;5056502;28;20070;-77
2022/05/03 00:55:45;;;;;;;8.55;5.97;;;11.30;99.90;;;;;;5022815;28;20049;-77
2022/05/03 00:58:48;;;;;;;8.25;5.95;;;11.30;99.90;;;;;;5056304;28;20377;-78
2022/05/03 01:01:29;;;;;;;11.02;6.53;;;11.10;99.90;;;;;;5038638;28;20374;-75
2022/05/03 01:04:08;;;;;;;10.63;6.53;;;11.40;99.90;;;;;;5056284;28;20032;-79
2022/05/03 01:06:57;;;;;;;7.93;5.93;;;11.20;99.90;;;;;;5056367;28;20120;-78
2022/05/03 01:09:48;;;;;;;10.75;6.68;;;11.20;99.90;;;;;;5009647;28;20056;-78
2022/05/03 01:12:17;;;;;;;10.30;6.25;;;11.30;99.90;;;;;;5038320;28;20418;-79
2022/05/03 01:15:08;;;;;;;13.95;7.63;;;11.10;99.90;;;;;;5056112;28;20037;-79
2022/05/03 01:17:48;;;;;;;9.60;7.03;;;10.90;99.90;;;;;;5056106;28;20044;-78
2022/05/03 01:20:26;;;;;;;14.40;7.35;;;11.10;99.90;;;;;;5056194;28;20028;-79
2022/05/03 01:22:58;;;;;;;9.55;6.65;;;11.10;99.90;;;;;;5056141;28;20017;-78
2022/05/03 01:25:49;;;;;;;10.75;7.53;;;11.10;99.90;;;;;;5055949;28;20041;-76
2022/05/03 01:28:46;;;;;;;11.10;6.15;;;11.40;99.90;;;;;;5037925;28;20040;-76
2022/05/03 01:31:14;;;;;;;7.78;5.95;;;11.40;99.90;;;;;;5056289;28;20060;-77
2022/05/03 01:33:45;;;;;;;9.02;5.95;;;11.40;99.90;;;;;;5055915;28;20032;-74
2022/05/03 01:36:15;;;;;;;8.65;6.32;;;11.40;99.90;;;;;;5056334;28;20480;-74
2022/05/03 01:38:55;;;;;;;9.52;5.68;;;11.20;99.90;;;;;;5055693;28;20360;-75
2022/05/03 01:41:34;;;;;;;13.07;6.53;;;11.10;99.90;;;;;;5055414;28;20392;-77
2022/05/03 01:44:19;;;;;;;10.93;6.43;;;11.00;99.90;;;;;;5037686;28;20063;-76
2022/05/03 01:46:53;;;;;;;10.00;6.57;;;11.10;99.90;;;;;;5055979;28;20033;-76
2022/05/03 01:52:41;;;;;;;8.63;6.15;;;11.00;99.90;;;;;;5035472;28;20530;-78
2022/05/03 01:55:46;;;;;;;13.00;6.65;;;10.90;99.90;;;;;;5035393;28;20021;-79
2022/05/03 01:58:24;;;;;;;11.45;6.75;;;11.10;99.90;;;;;;5033669;28;20052;-78
2022/05/03 02:01:40;;;;;;;8.68;6.72;;;11.10;99.90;;;;;;5035432;28;20033;-79
2022/05/03 02:04:33;;;;;;;11.20;6.85;;;11.00;99.90;;;;;;5050232;28;20627;-79
2022/05/03 02:07:17;;;;;;;10.00;6.65;;;10.90;99.90;;;;;;5055461;28;20079;-79
2022/05/03 02:09:52;;;;;;;11.15;7.43;;;10.80;99.90;;;;;;5037094;28;20064;-78
2022/05/03 02:12:20;;;;;;;11.90;7.13;;;10.90;99.90;;;;;;5055327;28;20029;-79
2022/05/03 02:14:52;;;;;;;10.35;7.72;;;10.90;99.90;;;;;;5055040;28;20527;-78
2022/05/03 02:17:49;;;;;;;10.75;8.43;;;10.60;99.90;;;;;;5055430;28;20025;-78
2022/05/03 02:20:30;;;;;;;10.50;7.93;;;10.30;99.90;;;;;;5055145;28;20389;-78
2022/05/03 02:23:15;;;;;;;11.68;8.63;;;10.30;99.90;;;;;;5054584;28;20500;-79
2022/05/03 02:25:55;;;;;;;11.93;8.38;;;10.40;99.90;;;;;;5034770;28;20052;-79
2022/05/03 02:28:44;;;;;;;14.85;8.75;;;10.30;99.90;;;;;;5041009;28;20512;-79
2022/05/03 02:31:18;;;;;;;13.00;8.65;;;10.20;99.90;;;;;;5034773;28;20037;-79
2022/05/03 02:33:54;;;;;;;12.52;8.90;;;10.40;99.90;;;;;;5034835;28;20033;-78
2022/05/03 02:36:24;;;;;;;11.55;8.52;;;10.50;99.90;;;;;;5035207;28;20025;-78
2022/05/03 02:38:59;;;;;;;16.63;8.35;;;10.50;99.90;;;;;;5034782;28;20148;-77
2022/05/03 02:41:26;;;;;;;16.20;8.88;;;10.10;99.90;;;;;;5034643;28;20036;-75
2022/05/03 02:43:55;;;;;;;11.63;8.35;;;10.00;99.90;;;;;;5016897;28;20037;-74
2022/05/03 02:46:49;;;;;;;16.25;9.38;;;9.90;99.90;;;;;;5034578;28;20129;-78
2022/05/03 02:49:41;;;;;;;17.52;9.05;;;10.10;99.90;;;;;;5034813;28;20034;-78
2022/05/03 02:52:11;;;;;;;;;;;10.10;99.90;;;;;;5030110;28;20045;-79
2022/05/03 02:54:36;;;;;;;14.20;9.38;;;10.00;99.90;;;;;;5034229;28;19913;-78
2022/05/03 02:57:08;;;;;;;13.70;9.45;;;10.00;99.90;;;;;;5034459;28;20053;-78
2022/05/03 03:03:18;;;;;;;12.05;8.88;;;9.70;99.90;;;;;;5038331;28;20079;-78
2022/05/03 03:05:49;;;;;;;13.13;8.77;;;9.60;99.90;;;;;;5036062;28;20047;-77
2022/05/03 03:08:21;;;;;;;17.50;10.45;;;9.90;99.90;;;;;;5035582;28;20025;-78
2022/05/03 03:11:05;;;;;;;15.15;9.85;;;10.10;99.90;;;;;;5054000;28;20192;-77
2022/05/03 03:13:56;;;;;;;20.15;10.88;;;10.30;99.90;;;;;;5054147;28;20440;-78
2022/05/03 03:16:32;;;;;;;22.48;12.10;;;10.30;99.90;;;;;;5053784;28;20033;-77
2022/05/03 03:19:03;;;;;;;25.10;13.48;;;10.40;99.90;;;;;;5053940;28;20055;-76
2022/05/03 03:21:34;;;;;;;22.25;12.65;;;10.50;99.90;;;;;;5053592;28;20094;-78
2022/05/03 03:24:01;;;;;;;17.02;11.07;;;10.30;99.90;;;;;;5053694;28;20051;-76
2022/05/03 03:26:30;;;;;;;21.95;13.10;;;10.30;99.90;;;;;;5053735;28;20063;-74
2022/05/03 03:28:59;;;;;;;24.33;13.13;;;10.40;99.90;;;;;;5053915;28;20092;-77
2022/05/03 03:31:27;;;;;;;20.85;13.18;;;10.40;99.90;;;;;;5053647;28;20035;-78
2022/05/03 03:33:54;;;;;;;18.33;12.70;;;10.40;99.90;;;;;;5053872;28;20033;-77
2022/05/03 03:36:23;;;;;;;16.35;11.60;;;9.90;99.90;;;;;;5053022;28;20109;-77
2022/05/03 03:38:49;;;;;;;16.02;11.07;;;9.80;99.90;;;;;;5035716;28;20397;-78
2022/05/03 03:41:15;;;;;;;21.88;11.50;;;9.50;99.90;;;;;;5053594;28;20035;-77
2022/05/03 03:43:40;;;;;;;18.67;11.27;;;9.60;99.90;;;;;;5035680;28;20044;-77
2022/05/03 03:46:08;;;;;;;20.08;12.65;;;9.40;99.90;;;;;;5053389;28;20047;-78
2022/05/03 03:48:33;;;;;;;17.25;11.88;;;9.40;99.90;;;;;;5035308;28;20500;-78
2022/05/03 03:51:01;;;;;;;20.55;12.38;;;9.40;99.90;;;;;;5053098;28;20048;-77
2022/05/03 03:53:27;;;;;;;16.05;11.48;;;9.50;99.90;;;;;;5053444;28;20085;-76
2022/05/03 03:55:53;;;;;;;15.20;11.15;;;9.80;99.90;;;;;;5053267;28;20465;-76
2022/05/03 03:58:20;;;;;;;19.60;11.02;;;9.80;99.90;;;;;;5053042;28;20473;-78
2022/05/03 04:00:49;;;;;;;17.05;12.48;;;9.90;99.90;;;;;;5053138;28;20519;-76
2022/05/03 04:03:16;;;;;;;20.63;12.40;;;10.10;99.90;;;;;;5051613;28;20556;-76
2022/05/03 04:05:43;;;;;;;16.73;11.65;;;10.10;99.90;;;;;;5052633;28;20037;-77
2022/05/03 04:08:09;;;;;;;24.10;12.90;;;10.10;99.90;;;;;;5053175;28;20033;-74
2022/05/03 04:10:35;;;;;;;19.77;12.98;;;10.20;99.90;;;;;;5053144;28;20036;-78
2022/05/03 04:13:01;;;;;;;19.35;13.52;;;10.20;99.90;;;;;;5052950;28;20024;-77
2022/05/03 04:15:26;;;;;;;22.63;12.60;;;10.10;99.90;;;;;;5035399;28;20485;-78
2022/05/03 04:17:53;;;;;;;18.80;12.40;;;10.00;99.90;;;;;;5052804;28;20067;-77
2022/05/03 04:20:19;;;;;;;18.30;13.48;;;9.90;99.90;;;;;;5051771;28;20142;-74
2022/05/03 04:22:45;;;;;;;18.35;13.43;;;9.60;99.90;;;;;;5052767;28;20408;-76
2022/05/03 04:25:11;;;;;;;23.05;13.50;;;9.80;99.90;;;;;;5052902;28;20032;-78
2022/05/03 04:27:37;;;;;;;18.60;12.45;;;9.50;99.90;;;;;;5034790;28;20469;-77
2022/05/03 04:30:03;;;;;;;24.17;14.15;;;9.40;99.90;;;;;;5052916;28;20025;-77
2022/05/03 04:32:33;;;;;;;21.13;12.05;;;9.60;99.90;;;;;;5051254;28;20487;-77
2022/05/03 04:34:59;;;;;;;22.08;13.18;;;9.70;99.90;;;;;;5052433;28;20021;-77
2022/05/03 04:37:26;;;;;;;21.10;13.10;;;9.70;99.90;;;;;;5052481;28;20040;-77
2022/05/03 04:39:52;;;;;;;20.02;14.07;;;9.80;99.90;;;;;;5052696;28;20041;-73
2022/05/03 04:42:18;;;;;;;20.98;13.43;;;10.00;99.90;;;;;;5052651;28;20025;-75
2022/05/03 04:44:44;;;;;;;24.40;13.13;;;9.90;99.90;;;;;;5052412;28;20048;-78
2022/05/03 04:47:09;;;;;;;22.45;13.57;;;9.90;99.90;;;;;;5052405;28;20025;-78
2022/05/03 04:49:35;;;;;;;22.13;13.15;;;9.90;99.90;;;;;;5052269;28;20033;-78
2022/05/03 04:52:01;;;;;;;21.17;13.65;;;10.00;99.90;;;;;;5052711;28;20031;-77
2022/05/03 04:54:27;;;;;;;32.10;14.80;;;10.10;99.90;;;;;;5052502;28;20048;-76
2022/05/03 04:57:02;;;;;;;21.10;14.18;;;10.00;99.90;;;;;;5034820;28;20048;-77
2022/05/03 04:59:28;;;;;;;22.52;13.50;;;10.20;99.90;;;;;;5052476;28;20512;-77
2022/05/03 05:01:54;;;;;;;18.58;12.70;;;10.10;99.90;;;;;;5052462;28;20032;-77
2022/05/03 05:04:20;;;;;;;25.23;14.68;;;9.80;99.90;;;;;;5034124;28;20041;-75
2022/05/03 05:06:46;;;;;;;19.35;13.82;;;10.10;99.90;;;;;;5034696;28;20029;-76
2022/05/03 05:09:12;;;;;;;27.70;13.70;;;10.10;99.90;;;;;;5052715;28;20056;-77
2022/05/03 05:11:37;;;;;;;23.15;13.52;;;9.80;99.90;;;;;;5053298;28;20504;-77
2022/05/03 05:14:03;;;;;;;29.88;13.95;;;9.90;99.90;;;;;;5035817;28;20040;-78
2022/05/03 05:16:30;;;;;;;23.35;13.48;;;9.90;99.90;;;;;;5052950;28;20075;-77
2022/05/03 05:18:56;;;;;;;20.70;13.18;;;10.20;99.90;;;;;;5052173;28;20065;-78
2022/05/03 05:21:22;;;;;;;17.85;12.30;;;10.30;99.90;;;;;;5052711;28;20033;-77
2022/05/03 05:23:48;;;;;;;24.08;13.05;;;10.40;99.90;;;;;;5054237;28;20508;-78
2022/05/03 05:26:13;;;;;;;24.83;13.82;;;10.80;99.90;;;;;;5035765;28;20052;-78
2022/05/03 05:28:39;;;;;;;24.27;14.02;;;11.00;99.90;;;;;;5052110;28;20017;-78
2022/05/03 05:31:05;;;;;;;21.08;13.60;;;11.10;99.90;;;;;;5052353;28;20021;-77
2022/05/03 05:33:31;;;;;;;25.35;13.63;;;11.00;99.90;;;;;;5055322;28;20029;-78
2022/05/03 05:35:57;;;;;;;27.83;13.50;;;11.20;99.90;;;;;;5055780;28;20025;-78
2022/05/03 05:38:22;;;;;;;28.98;14.70;;;11.30;99.90;;;;;;5055997;28;20567;-78
2022/05/03 05:40:49;;;;;;;25.73;13.18;;;11.30;99.90;;;;;;5055876;28;20687;-78
2022/05/03 05:43:16;;;;;;;24.35;13.02;;;11.40;99.90;;;;;;5055735;28;20033;-77
2022/05/03 05:45:42;;;;;;;27.77;14.80;;;11.40;99.90;;;;;;5055342;28;20121;-78
2022/05/03 05:48:09;;;;;;;20.42;14.15;;;11.50;99.90;;;;;;5055262;28;20037;-77
2022/05/03 05:50:35;;;;;;;23.45;14.38;;;11.70;99.90;;;;;;5055688;28;20060;-78
2022/05/03 05:55:45;;;;;;;20.40;14.05;;;11.90;99.90;;;;;;5055204;28;20029;-78
2022/05/03 05:58:11;;;;;;;23.48;14.95;;;11.70;99.90;;;;;;5055438;28;20035;-76
2022/05/03 06:00:37;;;;;;;27.30;14.82;;;11.70;99.90;;;;;;5046672;28;20424;-78
2022/05/03 06:03:05;;;;;;;22.08;13.95;;;11.60;99.90;;;;;;5051193;28;20028;-77
2022/05/03 06:05:31;;;;;;;25.40;14.23;;;11.90;99.90;;;;;;5054262;28;20029;-78
2022/05/03 06:07:57;;;;;;;29.67;14.93;;;12.00;99.90;;;;;;5037914;28;20040;-76
2022/05/03 06:10:23;;;;;;;23.73;14.85;;;12.20;99.90;;;;;;5032475;28;20025;-77
2022/05/03 06:12:50;;;;;;;20.10;14.13;;;12.50;99.90;;;;;;5063791;28;20393;-77
2022/05/03 06:15:16;;;;;;;23.75;15.10;;;12.50;99.90;;;;;;5055998;28;20495;-75
2022/05/03 06:17:42;;;;;;;27.67;16.92;;;12.50;99.90;;;;;;5072793;28;20035;-77
2022/05/03 06:20:09;;;;;;;28.90;16.13;;;12.30;99.90;;;;;;5054869;28;20385;-78
2022/05/03 06:22:34;;;;;;;24.45;15.10;;;12.50;99.90;;;;;;5067633;28;20112;-77
2022/05/03 06:25:00;;;;;;;17.88;10.98;;;12.70;99.90;;;;;;5053962;28;20120;-77
2022/05/03 06:27:26;;;;;;;18.77;12.23;;;12.90;99.90;;;;;;5023900;28;20390;-76
2022/05/03 06:29:52;;;;;;;22.45;12.00;;;12.80;99.90;;;;;;5058266;28;20115;-80
2022/05/03 06:32:17;;;;;;;19.65;11.25;;;12.70;99.90;;;;;;5036180;28;20059;-77
2022/05/03 06:34:43;;;;;;;14.35;9.80;;;12.70;99.90;;;;;;5046887;28;20033;-76
2022/05/03 06:37:09;;;;;;;19.95;10.65;;;12.80;99.90;;;;;;5044101;28;20021;-76
2022/05/03 06:39:38;;;;;;;16.00;10.50;;;12.80;99.90;;;;;;5040084;28;20056;-76
2022/05/03 06:42:05;;;;;;;19.95;11.43;;;13.10;99.90;;;;;;5050166;28;20432;-77
2022/05/03 06:44:31;;;;;;;16.08;10.43;;;13.30;99.90;;;;;;5037801;28;20044;-77
2022/05/03 06:46:57;;;;;;;17.52;9.48;;;13.30;99.90;;;;;;5042177;28;20036;-78
2022/05/03 06:49:23;;;;;;;15.15;9.00;;;13.30;98.80;;;;;;5053958;28;20033;-78
2022/05/03 06:51:50;;;;;;;21.10;9.07;;;13.40;99.20;;;;;;5037882;28;20071;-77
2022/05/03 06:54:16;;;;;;;15.57;9.60;;;13.60;99.40;;;;;;5050146;28;20034;-77
2022/05/03 06:56:41;;;;;;;14.88;9.32;;;13.70;99.90;;;;;;5034054;28;20021;-75
2022/05/03 06:59:07;;;;;;;13.77;8.68;;;13.60;99.90;;;;;;5026982;28;20037;-75
2022/05/03 07:01:33;;;;;;;19.42;9.27;;;13.70;99.90;;;;;;5039781;28;20025;-78
2022/05/03 07:03:59;;;;;;;17.83;9.93;;;13.70;99.90;;;;;;5050212;28;20052;-78
2022/05/03 07:06:25;;;;;;;16.33;11.23;;;13.70;99.90;;;;;;5053463;28;20025;-76
2022/05/03 07:08:51;;;;;;;19.67;11.70;;;13.90;99.90;;;;;;5035181;28;20021;-78
2022/05/03 07:11:17;;;;;;;26.35;11.32;;;13.70;99.90;;;;;;5035586;28;20117;-78
2022/05/03 07:13:43;;;;;;;19.80;11.57;;;13.90;99.90;;;;;;5053797;28;20041;-77
2022/05/03 07:16:09;;;;;;;23.38;12.32;;;13.90;99.90;;;;;;5053874;28;20079;-77
2022/05/03 07:24:04;;;;;;;24.05;14.80;;;14.40;99.90;;;;;;5073550;28;20439;-74
2022/05/03 07:26:30;;;;;;;20.17;14.38;;;14.60;99.90;;;;;;5073131;28;20028;-75
2022/05/03 07:28:56;;;;;;;20.58;13.20;;;14.80;99.90;;;;;;5073508;28;20028;-75
2022/05/03 07:31:23;;;;;;;19.67;14.00;;;14.90;99.90;;;;;;5073691;28;20101;-75
2022/05/03 07:33:49;;;;;;;20.35;13.02;;;14.90;99.90;;;;;;5073661;28;20074;-75
2022/05/03 07:36:18;;;;;;;23.67;15.43;;;14.70;99.90;;;;;;5073664;28;20017;-76
2022/05/03 07:38:43;;;;;;;21.45;13.20;;;14.60;99.90;;;;;;5073682;28;20040;-76
2022/05/03 07:41:10;;;;;;;22.67;13.55;;;14.90;99.90;;;;;;5073411;28;20082;-75
2022/05/03 07:43:36;;;;;;;22.38;12.13;;;14.80;99.90;;;;;;5073144;28;20036;-75
2022/05/03 07:46:02;;;;;;;17.52;12.05;;;15.00;99.90;;;;;;5073311;28;20040;-76
2022/05/03 07:48:28;;;;;;;16.55;12.80;;;15.30;99.20;;;;;;5059434;28;20029;-76
2022/05/03 07:50:54;;;;;;;20.33;13.57;;;15.20;98.20;;;;;;5052857;28;20033;-76
2022/05/03 07:53:20;;;;;;;19.25;13.32;;;15.30;99.20;;;;;;5053489;28;20078;-76
2022/05/03 07:55:47;;;;;;;22.70;12.15;;;15.30;98.90;;;;;;5053111;28;20032;-76
2022/05/03 07:58:13;;;;;;;23.60;14.80;;;15.30;98.70;;;;;;5052930;28;20029;-76
2022/05/03 08:00:39;;;;;;;22.13;13.95;;;15.40;99.00;;;;;;5053310;28;20032;-76
2022/05/03 08:03:05;;;;;;;21.23;13.40;;;14.90;99.60;;;;;;5052731;28;20032;-76
2022/05/03 08:05:31;;;;;;;26.45;12.40;;;15.10;99.90;;;;;;5053100;28;20056;-76
2022/05/03 08:07:57;;;;;;;17.20;12.65;;;15.40;99.90;;;;;;5052958;28;20390;-76
2022/05/03 08:10:23;;;;;;;19.25;13.02;;;15.50;99.40;;;;;;5053421;28;20118;-76
2022/05/03 08:12:52;;;;;;;21.50;13.13;;;15.40;98.30;;;;;;5038724;28;20394;-76
2022/05/03 08:15:19;;;;;;;17.98;13.73;;;15.50;98.90;;;;;;5054396;28;20028;-76
2022/05/03 08:17:46;;;;;;;19.88;13.52;;;15.30;99.00;;;;;;5052865;28;20036;-76
2022/05/03 08:20:13;;;;;;;18.65;12.90;;;15.70;98.90;;;;;;5053018;28;20029;-76
2022/05/03 08:22:40;;;;;;;21.15;13.40;;;15.10;98.70;;;;;;5053002;28;20143;-76
2022/05/03 08:25:07;;;;;;;26.02;14.50;;;15.60;99.50;;;;;;5052904;28;20592;-75
2022/05/03 08:27:36;;;;;;;20.65;12.90;;;16.00;98.10;;;;;;5052254;28;20071;-75
2022/05/03 08:30:03;;;;;;;19.98;14.07;;;16.10;98.00;;;;;;5066285;28;20119;-75
2022/05/03 08:32:29;;;;;;;19.27;13.18;;;16.20;97.30;;;;;;5072817;28;20021;-76
2022/05/03 08:34:55;;;;;;;16.55;12.63;;;15.90;97.20;;;;;;5072615;28;20043;-75
2022/05/03 08:42:50;;;;;;;17.23;11.13;;;16.70;97.60;;;;;;5072453;28;20036;-76
2022/05/03 08:45:15;;;;;;;18.55;12.13;;;17.00;96.80;;;;;;5072654;28;20033;-76
2022/05/03 08:47:41;;;;;;;23.35;13.10;;;17.00;95.50;;;;;;5064976;28;20496;-76
2022/05/03 08:50:11;;;;;;;21.70;12.40;;;16.50;95.80;;;;;;5052581;28;20068;-76
2022/05/03 08:52:42;;;;;;;20.80;13.05;;;16.50;97.20;;;;;;5052562;28;20520;-76
2022/05/03 08:55:11;;;;;;;16.20;12.57;;;16.30;97.00;;;;;;5052299;28;20439;-76
2022/05/03 08:57:37;;;;;;;15.93;12.27;;;16.30;96.50;;;;;;5052466;28;20058;-76
2022/05/03 09:00:06;;;;;;;18.88;12.32;;;16.40;97.50;;;;;;5052573;28;20029;-76
2022/05/03 09:02:33;;;;;;;19.05;12.65;;;17.00;96.00;;;;;;5052405;28;20017;-75
2022/05/03 09:05:00;;;;;;;19.83;13.35;;;17.10;96.10;;;;;;5052088;28;20046;-76
2022/05/03 09:07:26;;;;;;;22.02;12.05;;;17.50;95.50;;;;;;5036626;28;20086;-76
2022/05/03 09:09:54;;;;;;;19.30;12.38;;;17.80;95.00;;;;;;5056208;28;20025;-75
2022/05/03 09:12:28;;;;;;;17.02;11.55;;;17.90;94.80;;;;;;5056432;28;20038;-76
2022/05/03 09:14:59;;;;;;;21.42;11.00;;;18.10;94.50;;;;;;5056246;28;20112;-76
2022/05/03 09:17:40;;;;;;;13.63;10.20;;;18.40;94.40;;;;;;5056259;28;20445;-75
2022/05/03 09:23:46;;;;;;;18.40;10.85;;;18.50;93.70;;;;;;5056016;28;20028;-75
2022/05/03 09:25:47;;;;;;;22.17;13.02;;;18.10;94.60;;;;;;5055811;28;20056;-76
2022/05/03 09:28:13;;;;;;;22.25;13.43;;;18.20;94.50;;;;;;5055802;28;20028;-76
2022/05/03 09:30:52;;;;;;;21.75;12.75;;;18.20;94.80;;;;;;5055973;28;20463;-76
2022/05/03 09:33:20;;;;;;;20.55;12.73;;;18.30;93.90;;;;;;5055989;28;20024;-76
2022/05/03 09:35:47;;;;;;;16.52;11.45;;;17.90;93.90;;;;;;5056065;28;20044;-76
2022/05/03 09:38:13;;;;;;;16.70;11.43;;;18.20;94.20;;;;;;5055877;28;20036;-76
2022/05/03 09:40:42;;;;;;;16.05;11.35;;;18.40;93.60;;;;;;5055475;28;20029;-76
2022/05/03 09:43:08;;;;;;;22.48;11.43;;;18.20;93.30;;;;;;5055446;28;20473;-76
2022/05/03 09:45:36;;;;;;;17.52;11.70;;;18.70;94.00;;;;;;5055690;28;20041;-76
2022/05/03 09:48:03;;;;;;;14.85;10.93;;;19.20;93.30;;;;;;5055642;28;20041;-76
2022/05/03 09:50:42;;;;;;;17.40;10.45;;;19.20;93.30;;;;;;5055549;28;20060;-76
2022/05/03 09:53:14;;;;;;;15.27;8.70;;;19.60;93.10;;;;;;5055017;28;20377;-76
2022/05/03 09:55:42;;;;;;;16.92;10.77;;;19.50;92.30;;;;;;5021603;28;20032;-75
2022/05/03 09:58:12;;;;;;;12.18;9.40;;;19.70;91.60;;;;;;5037579;28;20032;-76
2022/05/03 10:00:48;;;;;;;26.55;11.32;;;19.70;91.70;;;;;;5055473;28;20043;-76
2022/05/03 10:03:14;;;;;;;20.15;12.10;;;19.40;92.10;;;;;;5037331;28;20025;-76
2022/05/03 10:05:42;;;;;;;19.75;12.27;;;19.10;93.20;;;;;;5055036;28;20079;-77
2022/05/03 10:08:11;;;;;;;18.92;12.98;;;19.50;92.90;;;;;;5054973;28;20037;-76
2022/05/03 10:10:41;;;;;;;24.52;12.98;;;19.30;93.10;;;;;;5055205;28;20028;-76
2022/05/03 10:13:07;;;;;;;18.58;13.52;;;19.00;92.60;;;;;;5037440;28;20029;-76
2022/05/03 10:21:17;;;;;;;24.58;13.35;;;18.90;93.90;;;;;;5054996;28;20033;-76
2022/05/03 10:24:07;;;;;;;34.90;14.55;;;19.30;92.90;;;;;;5054763;28;20082;-77
2022/05/03 10:26:51;;;;;;;30.02;15.07;;;19.30;93.40;;;;;;5054748;28;20486;-76
2022/05/03 10:29:22;;;;;;;18.15;13.57;;;18.70;93.00;;;;;;5037088;28;20041;-76
2022/05/03 10:31:56;;;;;;;25.10;13.40;;;18.50;94.10;;;;;;5054551;28;20104;-76
2022/05/03 10:34:41;;;;;;;23.48;14.07;;;19.10;93.60;;;;;;5054494;28;20393;-76
2022/05/03 10:37:08;;;;;;;20.05;13.65;;;19.10;93.60;;;;;;5054335;28;20056;-76
2022/05/03 10:39:43;;;;;;;17.95;13.00;;;19.40;93.10;;;;;;5054746;28;20036;-75
2022/05/03 10:42:15;;;;;;;21.50;15.30;;;19.40;93.40;;;;;;5054320;28;20095;-76
2022/05/03 10:44:45;;;;;;;26.25;13.43;;;18.60;93.90;;;;;;5036623;28;20138;-77
2022/05/03 10:47:13;;;;;;;20.73;14.35;;;18.40;94.00;;;;;;5051606;28;20079;-76
2022/05/03 10:50:15;;;;;;;20.95;14.35;;;19.10;94.10;;;;;;5054455;28;20068;-76
2022/05/03 10:52:55;;;;;;;29.48;15.75;;;18.80;94.30;;;;;;5054533;28;20033;-76
2022/05/03 10:55:22;;;;;;;23.98;14.70;;;19.40;93.90;;;;;;5036479;28;20051;-75
2022/05/03 10:58:16;;;;;;;24.70;16.60;;;18.80;93.80;;;;;;5036437;28;20478;-76
2022/05/03 11:01:05;;;;;;;24.00;16.42;;;18.50;94.30;;;;;;5054191;28;20033;-76
2022/05/03 11:04:01;;;;;;;25.02;15.05;;;18.40;95.00;;;;;;5054094;28;20024;-76
2022/05/03 11:06:26;;;;;;;24.38;15.50;;;18.60;94.80;;;;;;5035371;28;20565;-75
2022/05/03 11:11:39;;;;;;;22.17;15.10;;;19.50;93.40;;;;;;5054075;28;20035;-76
2022/05/03 11:14:05;;;;;;;18.63;12.73;;;19.80;93.60;;;;;;5054218;28;20025;-76
2022/05/03 11:16:37;;;;;;;21.98;14.80;;;20.20;91.80;;;;;;5035880;28;20366;-77
2022/05/03 11:19:19;;;;;;;23.70;15.95;;;20.20;92.50;;;;;;5054013;28;20064;-77
2022/05/03 11:21:47;;;;;;;21.38;16.13;;;21.10;92.60;;;;;;5053481;28;20025;-77
2022/05/03 11:24:23;;;;;;;22.88;16.55;;;21.10;92.20;;;;;;5054482;28;20036;-77
2022/05/03 11:26:51;;;;;;;28.67;16.50;;;21.00;92.90;;;;;;5055310;28;20102;-77
2022/05/03 11:29:17;;;;;;;23.25;15.60;;;21.10;91.50;;;;;;5053576;28;20049;-77
2022/05/03 11:31:50;;;;;;;20.98;13.85;;;20.60;91.80;;;;;;5053527;28;20025;-75
2022/05/03 11:34:17;;;;;;;19.80;15.45;;;20.10;92.30;;;;;;5053532;28;20035;-75
2022/05/03 11:36:46;;;;;;;20.30;14.98;;;19.70;92.70;;;;;;5053288;28;20588;-75
2022/05/03 11:39:13;;;;;;;20.38;14.90;;;19.80;93.50;;;;;;5045565;28;20048;-75
2022/05/03 11:41:39;;;;;;;19.70;13.88;;;19.60;93.40;;;;;;5045275;28;20095;-75
2022/05/03 11:44:05;;;;;;;21.13;14.43;;;19.10;93.40;;;;;;5043293;28;20029;-76
2022/05/03 11:46:31;;;;;;;21.33;13.93;;;19.30;94.00;;;;;;5037873;28;20055;-77
2022/05/03 11:49:03;;;;;;;22.85;15.57;;;19.70;94.10;;;;;;5034618;28;20029;-75
2022/05/03 11:57:12;;;;;;;17.20;13.48;;;19.60;93.40;;;;;;5036301;28;20025;-73
2022/05/03 11:59:42;;;;;;;17.98;13.98;;;19.90;93.30;;;;;;5045387;28;20033;-76
2022/05/03 12:02:20;;;;;;;18.52;13.35;;;19.80;93.20;;;;;;5043898;28;20029;-76
2022/05/03 12:05:21;;;;;;;17.85;12.50;;;19.80;93.50;;;;;;5048223;28;20440;-76
2022/05/03 12:07:48;;;;;;;15.93;12.13;;;19.70;93.60;;;;;;4959952;28;20110;-76
2022/05/03 12:10:37;;;;;;;17.25;12.85;;;20.00;93.30;;;;;;5024465;28;20030;-76
2022/05/03 12:13:17;;;;;;;22.85;13.55;;;19.90;93.70;;;;;;5014406;28;20017;-76
2022/05/03 12:15:46;;;;;;;17.85;12.80;;;20.00;93.60;;;;;;5040363;28;20029;-77
2022/05/03 12:18:20;;;;;;;20.17;13.60;;;19.60;93.80;;;;;;5039675;28;20056;-76
2022/05/03 12:20:57;;;;;;;15.30;12.40;;;19.10;94.00;;;;;;5030878;28;20033;-76
2022/05/03 12:23:25;;;;;;;19.45;12.15;;;19.40;94.10;;;;;;5037442;28;20013;-76
2022/05/03 12:25:52;;;;;;;18.88;13.55;;;19.20;93.90;;;;;;5042877;28;20068;-76
2022/05/03 12:28:19;;;;;;;17.85;13.18;;;18.90;95.30;;;;;;5044637;28;20078;-77
2022/05/03 12:30:54;;;;;;;20.55;14.45;;;18.70;95.60;;;;;;5035550;28;20084;-75
2022/05/03 12:33:20;;;;;;;21.25;15.68;;;18.70;95.60;;;;;;5046779;28;20026;-76
2022/05/03 12:35:47;;;;;;;19.25;13.18;;;19.00;95.20;;;;;;5040924;28;20358;-76
2022/05/03 12:38:15;;;;;;;18.05;12.82;;;19.10;94.60;;;;;;5046278;28;20103;-76
2022/05/03 12:40:59;;;;;;;20.48;14.65;;;19.40;94.40;;;;;;5035271;28;20597;-77
2022/05/03 12:43:27;;;;;;;21.35;14.93;;;19.30;94.60;;;;;;5037299;28;20473;-77
2022/05/03 12:46:01;;;;;;;23.65;14.00;;;18.70;96.00;;;;;;5024782;28;20027;-77
2022/05/03 12:48:29;;;;;;;20.00;14.20;;;18.50;96.20;;;;;;5045802;28;20120;-76
2022/05/03 12:50:56;;;;;;;19.23;13.50;;;18.80;96.00;;;;;;5035265;28;20033;-76
2022/05/03 12:53:35;;;;;;;18.90;14.75;;;18.90;95.50;;;;;;5015946;28;20025;-76
2022/05/03 12:58:48;;;;;;;17.75;13.50;;;18.50;95.70;;;;;;5035079;28;20029;-76
2022/05/03 13:01:15;;;;;;;16.70;13.15;;;18.40;95.90;;;;;;5029918;28;20032;-76
2022/05/03 13:03:45;;;;;;;17.75;13.25;;;18.30;96.00;;;;;;5043003;28;20064;-76
2022/05/03 13:06:10;;;;;;;18.02;13.52;;;18.50;96.20;;;;;;5039576;28;20041;-79
2022/05/03 13:08:36;;;;;;;18.33;13.52;;;19.00;95.80;;;;;;5029156;28;20108;-77
2022/05/03 13:11:02;;;;;;;20.65;14.77;;;19.10;95.40;;;;;;5035119;28;20032;-77
2022/05/03 13:13:28;;;;;;;30.13;16.17;;;19.10;95.50;;;;;;5045164;28;20064;-77
2022/05/03 13:15:54;;;;;;;21.85;15.75;;;19.30;95.20;;;;;;5023929;28;20052;-77
2022/05/03 13:18:20;;;;;;;22.75;16.20;;;18.70;95.80;;;;;;5020401;28;20037;-77
2022/05/03 13:20:46;;;;;;;19.90;13.75;;;18.30;96.90;;;;;;5048319;28;20029;-77
2022/05/03 13:23:11;;;;;;;25.30;14.95;;;18.60;96.80;;;;;;5035469;28;20039;-77
2022/05/03 13:25:37;;;;;;;20.85;14.95;;;18.70;96.70;;;;;;5043843;28;20382;-76
2022/05/03 13:28:06;;;;;;;26.17;18.05;;;18.80;96.60;;;;;;5042149;28;20048;-77
2022/05/03 13:30:33;;;;;;;30.25;18.77;;;18.80;96.90;;;;;;5036541;28;20038;-77
2022/05/03 13:32:59;;;;;;;28.67;19.27;;;19.00;97.00;;;;;;5049522;28;20029;-76